sensor_id;sensor_type;location;lat;lon;timestamp;pressure;altitude;pressure_sealevel;temperature;humidity
55289;BME280;41154;45.394;5.734;2023-02-01T00:02:24;98134.59;;;0.67;100.00
55289;BME280;41154;45.394;5.734;2023-02-01T00:04:50;98124.16;;;0.58;100.00
55289;BME280;41154;45.394;5.734;2023-02-01T00:07:15;98130.28;;;0.66;100.00
55289;BME280;41154;45.394;5.734;2023-02-01T00:09:41;98132.63;;;0.69;100.00
55289;BME280;41154;45.394;5.734;2023-02-01T00:12:06;98133.50;;;0.78;100.00
55289;BME280;41154;45.394;5.734;2023-02-01T00:14:32;98139.34;;;0.64;100.00
55289;BME280;41154;45.394;5.734;2023-02-01T00:17:06;98130.59;;;0.55;100.00
55289;BME280;41154;45.394;5.734;2023-02-01T00:19:33;98138.78;;;0.44;100.00
55289;BME280;41154;45.394;5.734;2023-02-01T00:21:58;98129.66;;;0.73;100.00
55289;BME280;41154;45.394;5.734;2023-02-01T00:24:24;98137.19;;;0.59;100.00
55289;BME280;41154;45.394;5.734;2023-02-01T00:26:50;98135.38;;;0.51;100.00
55289;BME280;41154;45.394;5.734;2023-02-01T00:29:18;98142.84;;;0.64;100.00
55289;BME280;41154;45.394;5.734;2023-02-01T00:31:44;98140.25;;;0.46;100.00
55289;BME280;41154;45.394;5.734;2023-02-01T00:34:15;98136.88;;;0.62;100.00
55289;BME280;41154;45.394;5.734;2023-02-01T00:36:42;98144.72;;;0.46;100.00
55289;BME280;41154;45.394;5.734;2023-02-01T00:39:09;98138.00;;;0.51;100.00
55289;BME280;41154;45.394;5.734;2023-02-01T00:41:36;98145.66;;;0.71;100.00
55289;BME280;41154;45.394;5.734;2023-02-01T00:44:02;98140.53;;;0.69;100.00
55289;BME280;41154;45.394;5.734;2023-02-01T00:46:29;98138.38;;;0.65;100.00
55289;BME280;41154;45.394;5.734;2023-02-01T00:48:55;98144.69;;;0.72;100.00
55289;BME280;41154;45.394;5.734;2023-02-01T00:51:23;98147.59;;;0.95;100.00
55289;BME280;41154;45.394;5.734;2023-02-01T00:53:50;98135.59;;;0.75;100.00
55289;BME280;41154;45.394;5.734;2023-02-01T00:56:16;98139.50;;;0.62;100.00
55289;BME280;41154;45.394;5.734;2023-02-01T00:58:42;98142.78;;;0.56;100.00
55289;BME280;41154;45.394;5.734;2023-02-01T01:01:09;98136.53;;;0.57;100.00
55289;BME280;41154;45.394;5.734;2023-02-01T01:03:38;98132.13;;;0.66;100.00
55289;BME280;41154;45.394;5.734;2023-02-01T01:06:07;98130.91;;;0.52;100.00
55289;BME280;41154;45.394;5.734;2023-02-01T01:08:35;98125.63;;;0.52;100.00
55289;BME280;41154;45.394;5.734;2023-02-01T01:11:09;98128.41;;;0.50;100.00
55289;BME280;41154;45.394;5.734;2023-02-01T01:13:35;98128.16;;;0.35;100.00
55289;BME280;41154;45.394;5.734;2023-02-01T01:16:03;98127.63;;;0.24;100.00
55289;BME280;41154;45.394;5.734;2023-02-01T01:18:30;98119.91;;;0.30;100.00
55289;BME280;41154;45.394;5.734;2023-02-01T01:20:56;98127.44;;;0.51;100.00
55289;BME280;41154;45.394;5.734;2023-02-01T01:23:22;98142.41;;;0.85;100.00
55289;BME280;41154;45.394;5.734;2023-02-01T01:25:47;98148.72;;;0.93;100.00
55289;BME280;41154;45.394;5.734;2023-02-01T01:28:13;98155.88;;;1.08;100.00
55289;BME280;41154;45.394;5.734;2023-02-01T01:30:39;98152.56;;;1.06;100.00
55289;BME280;41154;45.394;5.734;2023-02-01T01:33:05;98147.91;;;1.00;100.00
55289;BME280;41154;45.394;5.734;2023-02-01T01:35:31;98142.31;;;0.95;100.00
55289;BME280;41154;45.394;5.734;2023-02-01T01:37:59;98134.28;;;0.70;100.00
55289;BME280;41154;45.394;5.734;2023-02-01T01:40:26;98135.56;;;0.58;100.00
55289;BME280;41154;45.394;5.734;2023-02-01T01:42:52;98141.66;;;0.59;100.00
55289;BME280;41154;45.394;5.734;2023-02-01T01:45:34;98148.28;;;0.63;100.00
55289;BME280;41154;45.394;5.734;2023-02-01T01:48:14;98143.00;;;0.63;100.00
55289;BME280;41154;45.394;5.734;2023-02-01T01:50:53;98137.75;;;0.79;100.00
55289;BME280;41154;45.394;5.734;2023-02-01T01:53:27;98135.28;;;0.78;100.00
55289;BME280;41154;45.394;5.734;2023-02-01T01:55:54;98134.63;;;0.76;100.00
55289;BME280;41154;45.394;5.734;2023-02-01T01:58:23;98138.50;;;0.55;100.00
55289;BME280;41154;45.394;5.734;2023-02-01T02:00:51;98134.06;;;0.64;100.00
55289;BME280;41154;45.394;5.734;2023-02-01T02:03:32;98136.56;;;0.65;100.00
55289;BME280;41154;45.394;5.734;2023-02-01T02:06:00;98128.31;;;0.68;100.00
55289;BME280;41154;45.394;5.734;2023-02-01T02:08:28;98124.88;;;0.76;100.00
55289;BME280;41154;45.394;5.734;2023-02-01T02:10:54;98130.00;;;0.78;100.00
55289;BME280;41154;45.394;5.734;2023-02-01T02:13:34;98124.78;;;1.02;100.00
55289;BME280;41154;45.394;5.734;2023-02-01T02:23:53;98122.31;;;0.50;100.00
55289;BME280;41154;45.394;5.734;2023-02-01T02:29:24;98119.56;;;0.68;100.00
55289;BME280;41154;45.394;5.734;2023-02-01T02:34:48;98127.34;;;0.69;100.00
55289;BME280;41154;45.394;5.734;2023-02-01T02:37:38;98124.13;;;0.92;100.00
55289;BME280;41154;45.394;5.734;2023-02-01T02:40:15;98125.09;;;0.83;100.00
55289;BME280;41154;45.394;5.734;2023-02-01T02:43:13;98116.78;;;0.78;100.00
55289;BME280;41154;45.394;5.734;2023-02-01T02:49:05;98112.00;;;0.73;100.00
55289;BME280;41154;45.394;5.734;2023-02-01T02:51:37;98109.56;;;0.80;100.00
55289;BME280;41154;45.394;5.734;2023-02-01T02:54:30;98105.91;;;0.73;100.00
55289;BME280;41154;45.394;5.734;2023-02-01T03:00:08;98090.94;;;0.89;100.00
55289;BME280;41154;45.394;5.734;2023-02-01T03:02:55;98082.84;;;1.07;100.00
55289;BME280;41154;45.394;5.734;2023-02-01T03:05:43;98081.69;;;0.94;100.00
55289;BME280;41154;45.394;5.734;2023-02-01T03:08:11;98076.19;;;0.70;100.00
55289;BME280;41154;45.394;5.734;2023-02-01T03:11:04;98077.16;;;0.61;100.00
55289;BME280;41154;45.394;5.734;2023-02-01T03:13:51;98077.66;;;0.65;100.00
55289;BME280;41154;45.394;5.734;2023-02-01T03:16:40;98067.13;;;0.81;100.00
55289;BME280;41154;45.394;5.734;2023-02-01T03:19:17;98070.44;;;0.75;100.00
55289;BME280;41154;45.394;5.734;2023-02-01T03:21:54;98069.75;;;0.73;100.00
55289;BME280;41154;45.394;5.734;2023-02-01T03:24:41;98069.25;;;0.69;100.00
55289;BME280;41154;45.394;5.734;2023-02-01T03:27:35;98071.72;;;0.71;100.00
55289;BME280;41154;45.394;5.734;2023-02-01T03:30:32;98076.19;;;0.79;100.00
55289;BME280;41154;45.394;5.734;2023-02-01T03:32:58;98065.66;;;0.87;100.00
55289;BME280;41154;45.394;5.734;2023-02-01T03:38:22;98076.03;;;0.80;100.00
55289;BME280;41154;45.394;5.734;2023-02-01T03:43:50;98075.94;;;1.06;100.00
55289;BME280;41154;45.394;5.734;2023-02-01T03:46:51;98091.16;;;1.13;100.00
55289;BME280;41154;45.394;5.734;2023-02-01T03:49:32;98082.19;;;0.89;100.00
55289;BME280;41154;45.394;5.734;2023-02-01T03:52:00;98085.00;;;0.87;100.00
55289;BME280;41154;45.394;5.734;2023-02-01T03:54:27;98085.09;;;0.78;100.00
55289;BME280;41154;45.394;5.734;2023-02-01T03:56:56;98083.63;;;0.75;100.00
55289;BME280;41154;45.394;5.734;2023-02-01T03:59:23;98090.53;;;0.68;100.00
55289;BME280;41154;45.394;5.734;2023-02-01T04:01:49;98094.66;;;0.70;100.00
55289;BME280;41154;45.394;5.734;2023-02-01T04:04:16;98102.59;;;0.70;100.00
55289;BME280;41154;45.394;5.734;2023-02-01T04:06:48;98103.91;;;0.75;100.00
55289;BME280;41154;45.394;5.734;2023-02-01T04:09:14;98108.38;;;0.74;100.00
55289;BME280;41154;45.394;5.734;2023-02-01T04:11:40;98112.16;;;0.71;100.00
55289;BME280;41154;45.394;5.734;2023-02-01T04:14:05;98115.63;;;0.72;100.00
55289;BME280;41154;45.394;5.734;2023-02-01T04:16:32;98109.00;;;0.68;100.00
55289;BME280;41154;45.394;5.734;2023-02-01T04:18:58;98101.63;;;0.80;100.00
55289;BME280;41154;45.394;5.734;2023-02-01T04:21:25;98098.94;;;0.71;100.00
55289;BME280;41154;45.394;5.734;2023-02-01T04:23:52;98093.88;;;0.78;100.00
55289;BME280;41154;45.394;5.734;2023-02-01T04:26:17;98092.06;;;0.79;100.00
55289;BME280;41154;45.394;5.734;2023-02-01T04:28:44;98089.75;;;0.84;100.00
55289;BME280;41154;45.394;5.734;2023-02-01T04:31:14;98093.03;;;0.78;100.00
55289;BME280;41154;45.394;5.734;2023-02-01T04:33:40;98095.56;;;0.87;100.00
55289;BME280;41154;45.394;5.734;2023-02-01T04:36:06;98094.06;;;0.93;100.00
55289;BME280;41154;45.394;5.734;2023-02-01T04:38:32;98094.94;;;1.18;100.00
55289;BME280;41154;45.394;5.734;2023-02-01T04:40:58;98107.00;;;1.13;100.00
55289;BME280;41154;45.394;5.734;2023-02-01T04:43:24;98106.78;;;0.89;100.00
55289;BME280;41154;45.394;5.734;2023-02-01T04:45:50;98108.75;;;0.87;100.00
55289;BME280;41154;45.394;5.734;2023-02-01T04:48:18;98104.63;;;0.85;100.00
55289;BME280;41154;45.394;5.734;2023-02-01T04:50:45;98096.50;;;0.78;100.00
55289;BME280;41154;45.394;5.734;2023-02-01T04:53:14;98095.50;;;0.79;100.00
55289;BME280;41154;45.394;5.734;2023-02-01T04:55:41;98096.22;;;1.06;100.00
55289;BME280;41154;45.394;5.734;2023-02-01T04:58:07;98102.00;;;0.93;100.00
55289;BME280;41154;45.394;5.734;2023-02-01T05:00:32;98091.78;;;1.06;100.00
55289;BME280;41154;45.394;5.734;2023-02-01T05:02:58;98093.25;;;0.93;100.00
55289;BME280;41154;45.394;5.734;2023-02-01T05:05:24;98096.22;;;0.89;100.00
55289;BME280;41154;45.394;5.734;2023-02-01T05:07:50;98104.47;;;0.95;100.00
55289;BME280;41154;45.394;5.734;2023-02-01T05:10:16;98102.94;;;0.84;100.00
55289;BME280;41154;45.394;5.734;2023-02-01T05:12:43;98113.50;;;0.84;100.00
55289;BME280;41154;45.394;5.734;2023-02-01T05:15:29;98111.41;;;0.87;100.00
55289;BME280;41154;45.394;5.734;2023-02-01T05:17:54;98115.81;;;0.79;100.00
55289;BME280;41154;45.394;5.734;2023-02-01T05:20:20;98107.41;;;0.83;100.00
55289;BME280;41154;45.394;5.734;2023-02-01T05:22:46;98116.31;;;0.82;100.00
55289;BME280;41154;45.394;5.734;2023-02-01T05:25:12;98116.31;;;0.82;100.00
55289;BME280;41154;45.394;5.734;2023-02-01T05:27:37;98115.50;;;0.82;100.00
55289;BME280;41154;45.394;5.734;2023-02-01T05:30:05;98120.97;;;0.88;100.00
55289;BME280;41154;45.394;5.734;2023-02-01T05:32:31;98124.47;;;0.97;100.00
55289;BME280;41154;45.394;5.734;2023-02-01T05:34:56;98125.25;;;0.89;100.00
55289;BME280;41154;45.394;5.734;2023-02-01T05:37:22;98128.59;;;1.00;100.00
55289;BME280;41154;45.394;5.734;2023-02-01T05:39:48;98131.03;;;0.85;100.00
55289;BME280;41154;45.394;5.734;2023-02-01T05:42:13;98133.03;;;0.99;100.00
55289;BME280;41154;45.394;5.734;2023-02-01T05:44:39;98130.38;;;0.91;100.00
55289;BME280;41154;45.394;5.734;2023-02-01T05:47:05;98131.75;;;1.03;100.00
55289;BME280;41154;45.394;5.734;2023-02-01T05:49:31;98133.38;;;0.96;100.00
55289;BME280;41154;45.394;5.734;2023-02-01T05:51:57;98130.72;;;0.96;100.00
55289;BME280;41154;45.394;5.734;2023-02-01T05:54:23;98125.59;;;0.95;100.00
55289;BME280;41154;45.394;5.734;2023-02-01T05:56:48;98120.84;;;0.98;100.00
55289;BME280;41154;45.394;5.734;2023-02-01T05:59:14;98120.69;;;1.00;100.00
55289;BME280;41154;45.394;5.734;2023-02-01T06:01:41;98125.81;;;1.01;100.00
55289;BME280;41154;45.394;5.734;2023-02-01T06:04:07;98124.59;;;0.87;100.00
55289;BME280;41154;45.394;5.734;2023-02-01T06:06:32;98131.84;;;0.85;100.00
55289;BME280;41154;45.394;5.734;2023-02-01T06:08:58;98133.66;;;0.77;100.00
55289;BME280;41154;45.394;5.734;2023-02-01T06:11:25;98126.78;;;1.00;100.00
55289;BME280;41154;45.394;5.734;2023-02-01T06:13:51;98141.69;;;1.18;100.00
55289;BME280;41154;45.394;5.734;2023-02-01T06:16:17;98138.97;;;0.93;100.00
55289;BME280;41154;45.394;5.734;2023-02-01T06:18:43;98131.00;;;0.77;100.00
55289;BME280;41154;45.394;5.734;2023-02-01T06:21:09;98131.19;;;0.83;100.00
55289;BME280;41154;45.394;5.734;2023-02-01T06:23:34;98132.00;;;0.84;100.00
55289;BME280;41154;45.394;5.734;2023-02-01T06:26:01;98141.28;;;0.88;100.00
55289;BME280;41154;45.394;5.734;2023-02-01T06:28:28;98134.16;;;0.88;100.00
55289;BME280;41154;45.394;5.734;2023-02-01T06:30:54;98141.28;;;0.88;100.00
55289;BME280;41154;45.394;5.734;2023-02-01T06:33:20;98145.59;;;0.89;100.00
55289;BME280;41154;45.394;5.734;2023-02-01T06:35:45;98141.69;;;1.18;100.00
55289;BME280;41154;45.394;5.734;2023-02-01T06:38:13;98138.75;;;1.37;100.00
55289;BME280;41154;45.394;5.734;2023-02-01T06:40:39;98144.47;;;1.08;100.00
55289;BME280;41154;45.394;5.734;2023-02-01T06:43:05;98151.59;;;1.16;100.00
55289;BME280;41154;45.394;5.734;2023-02-01T06:45:31;98151.94;;;1.21;100.00
55289;BME280;41154;45.394;5.734;2023-02-01T06:47:58;98155.22;;;1.06;100.00
55289;BME280;41154;45.394;5.734;2023-02-01T06:50:24;98151.69;;;0.89;100.00
55289;BME280;41154;45.394;5.734;2023-02-01T06:52:50;98159.47;;;1.07;100.00
55289;BME280;41154;45.394;5.734;2023-02-01T06:55:16;98160.56;;;1.31;100.00
55289;BME280;41154;45.394;5.734;2023-02-01T06:57:41;98160.50;;;1.06;100.00
55289;BME280;41154;45.394;5.734;2023-02-01T07:00:07;98163.78;;;1.08;100.00
55289;BME280;41154;45.394;5.734;2023-02-01T07:02:33;98170.41;;;1.04;100.00
55289;BME280;41154;45.394;5.734;2023-02-01T07:04:59;98162.72;;;0.85;100.00
55289;BME280;41154;45.394;5.734;2023-02-01T07:07:25;98165.94;;;1.05;100.00
55289;BME280;41154;45.394;5.734;2023-02-01T07:09:50;98176.34;;;1.06;100.00
55289;BME280;41154;45.394;5.734;2023-02-01T07:12:16;98175.00;;;1.02;100.00
55289;BME280;41154;45.394;5.734;2023-02-01T07:14:42;98183.31;;;1.16;100.00
55289;BME280;41154;45.394;5.734;2023-02-01T07:17:07;98180.34;;;1.19;100.00
55289;BME280;41154;45.394;5.734;2023-02-01T07:19:33;98182.25;;;1.51;100.00
55289;BME280;41154;45.394;5.734;2023-02-01T07:21:58;98185.00;;;1.33;100.00
55289;BME280;41154;45.394;5.734;2023-02-01T07:24:24;98186.94;;;1.23;100.00
55289;BME280;41154;45.394;5.734;2023-02-01T07:26:50;98188.44;;;1.17;100.00
55289;BME280;41154;45.394;5.734;2023-02-01T07:29:18;98179.94;;;1.65;100.00
55289;BME280;41154;45.394;5.734;2023-02-01T07:31:44;98193.16;;;1.73;100.00
55289;BME280;41154;45.394;5.734;2023-02-01T07:34:10;98204.88;;;1.54;100.00
55289;BME280;41154;45.394;5.734;2023-02-01T07:36:36;98199.56;;;1.46;100.00
55289;BME280;41154;45.394;5.734;2023-02-01T07:39:04;98205.19;;;1.42;100.00
55289;BME280;41154;45.394;5.734;2023-02-01T07:41:30;98197.63;;;1.80;100.00
55289;BME280;41154;45.394;5.734;2023-02-01T07:43:56;98219.63;;;1.89;100.00
55289;BME280;41154;45.394;5.734;2023-02-01T07:46:22;98228.19;;;1.58;100.00
55289;BME280;41154;45.394;5.734;2023-02-01T07:48:48;98229.38;;;1.72;100.00
55289;BME280;41154;45.394;5.734;2023-02-01T07:51:15;98249.06;;;1.94;100.00
55289;BME280;41154;45.394;5.734;2023-02-01T07:53:42;98255.84;;;2.05;100.00
55289;BME280;41154;45.394;5.734;2023-02-01T07:56:14;98258.50;;;1.97;100.00
55289;BME280;41154;45.394;5.734;2023-02-01T07:58:40;98262.66;;;2.00;100.00
55289;BME280;41154;45.394;5.734;2023-02-01T08:01:21;98270.44;;;2.09;100.00
55289;BME280;41154;45.394;5.734;2023-02-01T08:03:56;98266.28;;;2.31;100.00
55289;BME280;41154;45.394;5.734;2023-02-01T08:06:23;98271.06;;;2.44;100.00
55289;BME280;41154;45.394;5.734;2023-02-01T08:08:49;98273.72;;;2.44;100.00
55289;BME280;41154;45.394;5.734;2023-02-01T08:11:15;98274.91;;;2.42;100.00
55289;BME280;41154;45.394;5.734;2023-02-01T08:13:42;98273.88;;;2.43;100.00
55289;BME280;41154;45.394;5.734;2023-02-01T08:16:09;98257.50;;;2.56;100.00
55289;BME280;41154;45.394;5.734;2023-02-01T08:18:36;98237.63;;;2.60;100.00
55289;BME280;41154;45.394;5.734;2023-02-01T08:21:08;98241.06;;;2.77;100.00
55289;BME280;41154;45.394;5.734;2023-02-01T08:23:35;98252.44;;;2.94;100.00
55289;BME280;41154;45.394;5.734;2023-02-01T08:26:27;98256.00;;;3.17;100.00
55289;BME280;41154;45.394;5.734;2023-02-01T08:28:55;98252.06;;;3.13;100.00
55289;BME280;41154;45.394;5.734;2023-02-01T08:31:22;98231.03;;;3.12;100.00
55289;BME280;41154;45.394;5.734;2023-02-01T08:33:51;98219.88;;;3.24;100.00
55289;BME280;41154;45.394;5.734;2023-02-01T08:36:17;98212.78;;;3.48;100.00
55289;BME280;41154;45.394;5.734;2023-02-01T08:38:43;98219.00;;;3.64;100.00
55289;BME280;41154;45.394;5.734;2023-02-01T08:41:14;98199.63;;;3.55;100.00
55289;BME280;41154;45.394;5.734;2023-02-01T08:43:41;98192.72;;;3.46;100.00
55289;BME280;41154;45.394;5.734;2023-02-01T08:46:07;98201.47;;;3.54;100.00
55289;BME280;41154;45.394;5.734;2023-02-01T08:48:34;98214.53;;;3.87;100.00
55289;BME280;41154;45.394;5.734;2023-02-01T08:51:08;98221.88;;;4.61;100.00
55289;BME280;41154;45.394;5.734;2023-02-01T08:53:35;98213.97;;;4.83;100.00
55289;BME280;41154;45.394;5.734;2023-02-01T08:56:01;98206.69;;;5.94;100.00
55289;BME280;41154;45.394;5.734;2023-02-01T08:58:27;98205.81;;;6.30;100.00
55289;BME280;41154;45.394;5.734;2023-02-01T09:00:53;98206.81;;;8.90;100.00
55289;BME280;41154;45.394;5.734;2023-02-01T09:03:19;98204.91;;;7.70;100.00
55289;BME280;41154;45.394;5.734;2023-02-01T09:05:44;98210.03;;;5.60;100.00
55289;BME280;41154;45.394;5.734;2023-02-01T09:08:11;98200.22;;;7.24;100.00
55289;BME280;41154;45.394;5.734;2023-02-01T09:10:41;98192.47;;;8.31;100.00
55289;BME280;41154;45.394;5.734;2023-02-01T09:13:07;98194.66;;;9.91;86.19
55289;BME280;41154;45.394;5.734;2023-02-01T09:15:34;98179.59;;;9.51;88.57
55289;BME280;41154;45.394;5.734;2023-02-01T09:18:00;98177.81;;;8.73;89.55
55289;BME280;41154;45.394;5.734;2023-02-01T09:20:26;98183.00;;;8.21;92.05
55289;BME280;41154;45.394;5.734;2023-02-01T09:22:52;98196.75;;;8.12;93.45
55289;BME280;41154;45.394;5.734;2023-02-01T09:25:20;98209.94;;;8.20;90.06
55289;BME280;41154;45.394;5.734;2023-02-01T09:27:45;98205.13;;;7.82;91.35
55289;BME280;41154;45.394;5.734;2023-02-01T09:30:11;98211.09;;;7.15;92.91
55289;BME280;41154;45.394;5.734;2023-02-01T09:32:37;98223.13;;;7.05;95.17
55289;BME280;41154;45.394;5.734;2023-02-01T09:35:03;98234.72;;;6.90;95.82
55289;BME280;41154;45.394;5.734;2023-02-01T09:37:29;98233.41;;;7.08;98.26
55289;BME280;41154;45.394;5.734;2023-02-01T09:39:54;98243.41;;;6.64;98.71
55289;BME280;41154;45.394;5.734;2023-02-01T09:45:20;98248.63;;;6.79;100.00
55289;BME280;41154;45.394;5.734;2023-02-01T09:47:54;98236.34;;;7.19;98.14
55289;BME280;41154;45.394;5.734;2023-02-01T09:50:28;98242.91;;;6.89;99.32
55289;BME280;41154;45.394;5.734;2023-02-01T09:53:04;98262.13;;;6.77;99.38
55289;BME280;41154;45.394;5.734;2023-02-01T09:55:43;98270.59;;;7.16;96.20
55289;BME280;41154;45.394;5.734;2023-02-01T09:58:39;98282.72;;;6.62;99.27
55289;BME280;41154;45.394;5.734;2023-02-01T10:01:18;98281.88;;;6.55;100.00
55289;BME280;41154;45.394;5.734;2023-02-01T10:03:45;98287.50;;;6.45;100.00
55289;BME280;41154;45.394;5.734;2023-02-01T10:09:29;98299.81;;;6.96;97.29
55289;BME280;41154;45.394;5.734;2023-02-01T10:15:02;98306.31;;;6.87;95.13
55289;BME280;41154;45.394;5.734;2023-02-01T10:20:41;98293.56;;;6.82;97.30
55289;BME280;41154;45.394;5.734;2023-02-01T10:26:12;98289.56;;;6.71;99.58
55289;BME280;41154;45.394;5.734;2023-02-01T10:28:42;98296.03;;;6.83;98.07
55289;BME280;41154;45.394;5.734;2023-02-01T10:31:10;98298.81;;;6.97;97.59
55289;BME280;41154;45.394;5.734;2023-02-01T10:33:44;98307.22;;;6.72;97.67
55289;BME280;41154;45.394;5.734;2023-02-01T10:36:24;98310.13;;;7.06;96.21
55289;BME280;41154;45.394;5.734;2023-02-01T10:38:53;98308.25;;;7.28;96.00
55289;BME280;41154;45.394;5.734;2023-02-01T10:41:22;98304.94;;;7.26;96.24
55289;BME280;41154;45.394;5.734;2023-02-01T10:43:54;98299.94;;;7.51;93.22
55289;BME280;41154;45.394;5.734;2023-02-01T10:46:23;98316.75;;;6.81;95.06
55289;BME280;41154;45.394;5.734;2023-02-01T10:48:52;98316.38;;;6.84;97.65
55289;BME280;41154;45.394;5.734;2023-02-01T10:51:26;98310.28;;;6.97;95.60
55289;BME280;41154;45.394;5.734;2023-02-01T10:53:57;98316.72;;;7.03;96.09
55289;BME280;41154;45.394;5.734;2023-02-01T10:56:26;98312.91;;;6.91;96.98
55289;BME280;41154;45.394;5.734;2023-02-01T10:59:00;98305.56;;;6.99;96.35
55289;BME280;41154;45.394;5.734;2023-02-01T11:01:39;98298.25;;;7.08;97.81
55289;BME280;41154;45.394;5.734;2023-02-01T11:04:13;98294.91;;;6.99;96.08
55289;BME280;41154;45.394;5.734;2023-02-01T11:06:41;98292.44;;;6.98;95.10
55289;BME280;41154;45.394;5.734;2023-02-01T11:11:56;98260.13;;;7.14;97.18
55289;BME280;41154;45.394;5.734;2023-02-01T11:14:27;98261.16;;;6.85;99.48
55289;BME280;41154;45.394;5.734;2023-02-01T11:16:58;98254.34;;;6.76;100.00
55289;BME280;41154;45.394;5.734;2023-02-01T11:19:24;98235.88;;;7.09;100.00
55289;BME280;41154;45.394;5.734;2023-02-01T11:21:57;98235.41;;;6.99;100.00
55289;BME280;41154;45.394;5.734;2023-02-01T11:24:29;98227.78;;;6.61;100.00
55289;BME280;41154;45.394;5.734;2023-02-01T11:27:00;98211.50;;;7.19;100.00
55289;BME280;41154;45.394;5.734;2023-02-01T11:29:34;98196.16;;;7.28;98.06
55289;BME280;41154;45.394;5.734;2023-02-01T11:32:02;98186.38;;;7.00;99.50
55289;BME280;41154;45.394;5.734;2023-02-01T11:34:38;98186.22;;;7.15;100.00
55289;BME280;41154;45.394;5.734;2023-02-01T11:37:16;98177.97;;;7.03;100.00
55289;BME280;41154;45.394;5.734;2023-02-01T11:39:42;98170.97;;;6.95;100.00
55289;BME280;41154;45.394;5.734;2023-02-01T11:42:16;98166.66;;;7.01;100.00
55289;BME280;41154;45.394;5.734;2023-02-01T11:44:44;98164.69;;;7.16;100.00
55289;BME280;41154;45.394;5.734;2023-02-01T11:47:26;98165.00;;;7.48;100.00
55289;BME280;41154;45.394;5.734;2023-02-01T11:50:00;98165.84;;;7.55;100.00
55289;BME280;41154;45.394;5.734;2023-02-01T11:53:02;98166.56;;;7.23;99.59
55289;BME280;41154;45.394;5.734;2023-02-01T11:55:56;98161.34;;;7.56;98.36
55289;BME280;41154;45.394;5.734;2023-02-01T12:01:12;98161.06;;;6.82;98.46
55289;BME280;41154;45.394;5.734;2023-02-01T12:14:59;98126.38;;;7.44;95.97
55289;BME280;41154;45.394;5.734;2023-02-01T12:26:01;98124.16;;;6.93;99.99
55289;BME280;41154;45.394;5.734;2023-02-01T12:31:16;98119.69;;;7.07;100.00
55289;BME280;41154;45.394;5.734;2023-02-01T12:34:13;98120.03;;;6.90;100.00
55289;BME280;41154;45.394;5.734;2023-02-01T12:36:52;98120.59;;;6.72;100.00
55289;BME280;41154;45.394;5.734;2023-02-01T12:40:02;98123.06;;;6.80;100.00
55289;BME280;41154;45.394;5.734;2023-02-01T12:42:43;98121.75;;;6.63;100.00
55289;BME280;41154;45.394;5.734;2023-02-01T12:45:20;98119.56;;;6.38;100.00
55289;BME280;41154;45.394;5.734;2023-02-01T12:47:54;98122.22;;;6.38;100.00
55289;BME280;41154;45.394;5.734;2023-02-01T12:50:43;98114.47;;;6.43;100.00
55289;BME280;41154;45.394;5.734;2023-02-01T12:55:52;98106.56;;;7.12;100.00
55289;BME280;41154;45.394;5.734;2023-02-01T12:58:25;98109.66;;;7.09;100.00
55289;BME280;41154;45.394;5.734;2023-02-01T13:06:36;98100.88;;;7.28;100.00
55289;BME280;41154;45.394;5.734;2023-02-01T13:12:15;98107.72;;;6.82;100.00
55289;BME280;41154;45.394;5.734;2023-02-01T13:14:49;98103.44;;;6.95;100.00
55289;BME280;41154;45.394;5.734;2023-02-01T13:17:26;98108.91;;;7.28;100.00
55289;BME280;41154;45.394;5.734;2023-02-01T13:20:02;98111.38;;;7.43;100.00
55289;BME280;41154;45.394;5.734;2023-02-01T13:22:36;98112.44;;;7.42;100.00
55289;BME280;41154;45.394;5.734;2023-02-01T13:27:36;98128.66;;;7.47;100.00
55289;BME280;41154;45.394;5.734;2023-02-01T13:30:20;98120.97;;;7.17;100.00
55289;BME280;41154;45.394;5.734;2023-02-01T13:43:51;98114.25;;;6.80;100.00
55289;BME280;41154;45.394;5.734;2023-02-01T13:46:18;98112.59;;;6.72;100.00
55289;BME280;41154;45.394;5.734;2023-02-01T13:51:14;98116.50;;;6.76;100.00
55289;BME280;41154;45.394;5.734;2023-02-01T13:54:03;98112.22;;;6.89;100.00
55289;BME280;41154;45.394;5.734;2023-02-01T13:56:42;98105.88;;;6.90;100.00
55289;BME280;41154;45.394;5.734;2023-02-01T14:05:03;98095.75;;;7.20;100.00
55289;BME280;41154;45.394;5.734;2023-02-01T14:07:29;98094.94;;;7.40;100.00
55289;BME280;41154;45.394;5.734;2023-02-01T14:09:55;98102.25;;;7.04;100.00
55289;BME280;41154;45.394;5.734;2023-02-01T14:12:44;98108.56;;;6.90;100.00
55289;BME280;41154;45.394;5.734;2023-02-01T14:17:47;98109.63;;;6.60;100.00
55289;BME280;41154;45.394;5.734;2023-02-01T14:20:39;98107.91;;;6.81;100.00
55289;BME280;41154;45.394;5.734;2023-02-01T14:23:13;98109.31;;;6.70;100.00
55289;BME280;41154;45.394;5.734;2023-02-01T14:25:40;98105.69;;;6.98;100.00
55289;BME280;41154;45.394;5.734;2023-02-01T14:28:25;98115.75;;;6.54;100.00
55289;BME280;41154;45.394;5.734;2023-02-01T14:30:51;98104.28;;;7.02;100.00
55289;BME280;41154;45.394;5.734;2023-02-01T14:33:21;98103.50;;;7.08;100.00
55289;BME280;41154;45.394;5.734;2023-02-01T14:38:31;98088.53;;;7.14;100.00
55289;BME280;41154;45.394;5.734;2023-02-01T14:41:12;98079.50;;;7.15;100.00
55289;BME280;41154;45.394;5.734;2023-02-01T14:47:07;98076.06;;;6.73;100.00
55289;BME280;41154;45.394;5.734;2023-02-01T14:52:25;98075.34;;;6.99;100.00
55289;BME280;41154;45.394;5.734;2023-02-01T14:54:56;98073.88;;;6.90;100.00
55289;BME280;41154;45.394;5.734;2023-02-01T14:57:25;98088.34;;;7.15;100.00
55289;BME280;41154;45.394;5.734;2023-02-01T14:59:59;98077.81;;;7.07;100.00
55289;BME280;41154;45.394;5.734;2023-02-01T15:02:30;98076.41;;;7.11;100.00
55289;BME280;41154;45.394;5.734;2023-02-01T15:04:59;98070.47;;;7.09;100.00
55289;BME280;41154;45.394;5.734;2023-02-01T15:07:26;98068.81;;;7.08;100.00
55289;BME280;41154;45.394;5.734;2023-02-01T15:09:55;98073.13;;;7.09;100.00
55289;BME280;41154;45.394;5.734;2023-02-01T15:12:28;98074.34;;;7.07;100.00
55289;BME280;41154;45.394;5.734;2023-02-01T15:15:19;98073.34;;;7.14;100.00